Time;durP1;ratioP1;P1;durP2;ratioP2;P2;SDS_P1;SDS_P2;PMS_P1;PMS_P2;Temp;Humidity;BMP_temperature;BMP_pressure;BME280_temperature;BME280_humidity;BME280_pressure;Samples;Min_cycle;Max_cycle;Signal;HPM_P1;HPM_P2
2024/01/16 00:03:26;;;;;;;2.20;1.10;;;;;;;19.91;42.06;95422.97;20763717;28;20521;-76
2024/01/16 00:13:45;;;;;;;3.42;1.33;;;;;;;19.87;42.26;95435.63;20790231;28;20050;-76
2024/01/16 00:24:04;;;;;;;2.92;1.40;;;;;;;19.87;42.03;95462.66;20764738;28;20048;-76
2024/01/16 00:34:24;;;;;;;2.40;1.02;;;;;;;19.86;41.98;95473.84;20674635;28;20069;-76
2024/01/16 00:44:43;;;;;;;2.58;1.10;;;;;;;19.81;41.93;95479.53;20707807;28;20168;-76
2024/01/16 00:55:03;;;;;;;2.15;1.02;;;;;;;19.76;41.91;95483.31;20742327;28;20050;-76
2024/01/16 01:05:28;;;;;;;1.60;1.00;;;;;;;19.73;42.09;95484.03;20765628;28;20077;-76
2024/01/16 01:15:47;;;;;;;1.60;1.00;;;;;;;19.65;41.95;95503.91;20774311;28;20100;-76
2024/01/16 01:26:07;;;;;;;1.73;1.00;;;;;;;19.63;41.98;95517.78;20768739;28;20112;-76
2024/01/16 01:36:27;;;;;;;2.03;0.90;;;;;;;19.56;42.13;95536.53;20713166;28;20050;-76
2024/01/16 01:46:47;;;;;;;1.88;0.80;;;;;;;19.53;42.01;95539.94;20746560;28;20057;-76
2024/01/16 01:57:08;;;;;;;1.95;1.13;;;;;;;19.46;41.97;95550.59;20773509;28;20100;-76
2024/01/16 02:07:28;;;;;;;2.45;1.00;;;;;;;19.41;42.05;95559.75;20779463;28;20076;-76
2024/01/16 02:17:48;;;;;;;0.85;0.73;;;;;;;19.35;41.98;95578.16;20796014;28;20483;-76
2024/01/16 02:28:07;;;;;;;1.25;0.60;;;;;;;19.34;42.11;95581.22;20769784;28;20065;-76
2024/01/16 02:38:27;;;;;;;1.38;0.80;;;;;;;19.29;41.96;95601.16;20781394;28;20506;-76
2024/01/16 02:48:46;;;;;;;1.65;0.90;;;;;;;19.28;42.01;95606.91;20752611;28;20108;-76
2024/01/16 02:59:07;;;;;;;1.88;0.90;;;;;;;19.21;42.15;95595.94;20771311;28;20068;-76
2024/01/16 03:09:27;;;;;;;2.00;0.80;;;;;;;19.17;42.13;95604.75;20760555;28;20442;-76
2024/01/16 03:19:46;;;;;;;0.70;0.70;;;;;;;19.12;42.10;95610.41;20780713;28;20037;-76
2024/01/16 03:30:08;;;;;;;1.20;1.00;;;;;;;19.12;42.17;95636.63;20768634;28;20617;-76
2024/01/16 03:40:27;;;;;;;1.45;0.82;;;;;;;19.08;42.08;95654.66;20774634;28;20387;-76
2024/01/16 03:50:47;;;;;;;1.00;0.60;;;;;;;19.04;42.08;95654.56;20721021;28;20058;-76
2024/01/16 04:01:06;;;;;;;1.10;0.75;;;;;;;19.01;41.96;95654.47;20791617;28;20053;-76
2024/01/16 04:11:26;;;;;;;0.77;0.68;;;;;;;18.95;42.28;95668.25;20796250;28;20049;-76
2024/01/16 04:21:46;;;;;;;0.50;0.50;;;;;;;18.93;42.07;95675.09;20764740;28;20415;-76
2024/01/16 04:32:05;;;;;;;0.68;0.68;;;;;;;18.89;42.21;95695.81;20750149;28;20457;-76
2024/01/16 04:42:25;;;;;;;1.40;0.70;;;;;;;18.85;42.14;95684.16;20820391;28;20132;-76
2024/01/16 04:52:45;;;;;;;0.90;0.70;;;;;;;18.81;42.01;95696.78;20755598;28;20108;-76
2024/01/16 05:03:05;;;;;;;0.70;0.70;;;;;;;18.76;42.30;95700.47;20752507;28;20064;-76
2024/01/16 05:13:25;;;;;;;0.77;0.70;;;;;;;18.76;42.44;95722.84;20779400;28;20625;-76
2024/01/16 05:23:44;;;;;;;1.05;0.70;;;;;;;18.73;42.03;95736.25;20744711;28;20100;-76
2024/01/16 05:34:03;;;;;;;1.08;0.55;;;;;;;18.73;42.22;95736.25;20767560;28;20053;-76
2024/01/16 05:44:23;;;;;;;1.35;0.70;;;;;;;18.76;42.99;95736.34;20781431;28;20483;-77
2024/01/16 05:54:42;;;;;;;3.42;0.60;;;;;;;18.87;42.52;95750.13;20770310;28;20049;-78
2024/01/16 06:05:02;;;;;;;0.40;0.40;;;;;;;18.96;42.79;95766.19;20773398;28;20065;-77
2024/01/16 06:15:23;;;;;;;2.60;0.60;;;;;;;18.98;42.67;95773.94;20734731;28;20511;-76
2024/01/16 06:25:42;;;;;;;2.80;0.70;;;;;;;19.06;43.34;95773.00;20763699;28;20058;-78
2024/01/16 06:36:04;;;;;;;3.35;0.95;;;;;;;19.09;43.11;95794.69;20750274;28;20111;-78
2024/01/16 06:46:25;;;;;;;8.05;1.95;;;;;;;19.12;42.69;95801.31;20754870;28;20064;-78
2024/01/16 06:56:45;;;;;;;6.70;2.47;;;;;;;19.20;42.60;95808.47;20727260;28;20065;-78
2024/01/16 07:07:05;;;;;;;8.38;2.40;;;;;;;19.27;42.37;95826.78;20765255;28;20053;-78
2024/01/16 07:17:25;;;;;;;11.23;2.95;;;;;;;19.35;42.38;95831.22;20760880;28;20061;-78
2024/01/16 07:27:48;;;;;;;8.45;2.53;;;;;;;19.45;41.94;95852.34;20753514;28;20053;-78
2024/01/16 07:38:08;;;;;;;7.97;2.38;;;;;;;19.51;41.88;95863.66;20740059;28;20053;-78
2024/01/16 07:48:28;;;;;;;6.82;2.40;;;;;;;19.52;41.72;95884.13;20792902;28;20061;-78
2024/01/16 07:58:47;;;;;;;8.73;2.25;;;;;;;19.61;41.49;95889.41;20767006;28;20054;-75
2024/01/16 08:09:06;;;;;;;5.28;2.00;;;;;;;19.76;41.13;95899.47;20737365;28;20054;-75
2024/01/16 08:19:26;;;;;;;5.85;2.10;;;;;;;19.86;41.17;95912.47;20741854;28;20046;-75
2024/01/16 08:29:48;;;;;;;6.90;2.10;;;;;;;19.91;40.79;95912.19;20748388;28;20563;-75
2024/01/16 08:40:08;;;;;;;2.50;1.50;;;;;;;20.00;40.58;95925.56;20749872;28;20052;-75
2024/01/16 08:50:28;;;;;;;6.88;2.05;;;;;;;20.03;40.61;95934.88;20756321;28;20061;-75
2024/01/16 09:00:48;;;;;;;5.68;2.08;;;;;;;20.11;40.43;95952.84;20763194;28;20050;-75
2024/01/16 09:11:07;;;;;;;5.97;1.90;;;;;;;20.20;40.39;95966.22;20736237;28;20092;-78
2024/01/16 09:21:28;;;;;;;4.70;1.73;;;;;;;20.24;40.15;95969.78;20734870;28;20046;-78
2024/01/16 09:31:47;;;;;;;2.40;1.50;;;;;;;20.32;40.21;95975.03;20760850;28;20050;-78
2024/01/16 09:42:07;;;;;;;4.43;1.60;;;;;;;20.42;39.86;95975.63;20746227;28;20552;-78
2024/01/16 09:52:26;;;;;;;3.92;1.83;;;;;;;20.45;39.73;95967.63;20763295;28;20058;-77
2024/01/16 10:02:46;;;;;;;3.65;1.50;;;;;;;20.50;39.52;95963.84;20761100;28;20049;-77
2024/01/16 10:13:06;;;;;;;2.50;1.30;;;;;;;20.59;39.55;95956.38;20733784;28;20058;-78
2024/01/16 10:23:28;;;;;;;2.63;1.42;;;;;;;20.62;39.50;95944.84;20759954;28;20073;-75
2024/01/16 10:33:48;;;;;;;2.75;1.60;;;;;;;20.67;39.48;95954.63;20745310;28;20050;-75
2024/01/16 10:44:08;;;;;;;2.33;1.35;;;;;;;20.76;39.22;95959.84;20744645;28;20502;-75
2024/01/16 10:54:27;;;;;;;1.52;1.05;;;;;;;20.76;39.26;95970.66;20738317;28;20128;-75
2024/01/16 11:04:49;;;;;;;2.08;1.23;;;;;;;20.82;39.14;95972.75;20756675;28;20104;-75
2024/01/16 11:15:12;;;;;;;1.98;1.13;;;;;;;20.82;39.30;95967.34;20769948;28;20062;-75
2024/01/16 11:25:33;;;;;;;1.85;1.00;;;;;;;20.80;39.19;95960.72;20727820;28;20057;-75
2024/01/16 11:35:52;;;;;;;1.80;1.20;;;;;;;20.84;39.19;95961.59;20753454;28;20053;-76
2024/01/16 11:46:12;;;;;;;2.10;1.10;;;;;;;20.80;39.44;95958.78;20753712;28;20068;-76
2024/01/16 11:56:42;;;;;;;1.90;1.05;;;;;;;20.77;39.33;95950.59;20729248;28;20058;-75
2024/01/16 12:07:02;;;;;;;1.27;0.85;;;;;;;20.70;39.43;95959.34;20779505;28;20062;-75
2024/01/16 12:17:22;;;;;;;2.08;1.13;;;;;;;20.70;39.42;95940.41;20751314;28;20054;-75
2024/01/16 12:27:42;;;;;;;1.30;1.05;;;;;;;20.68;39.49;95935.34;20713406;28;20058;-76
2024/01/16 12:38:13;;;;;;;1.40;0.85;;;;;;;20.63;39.59;95934.81;20763556;28;20696;-75
2024/01/16 12:48:32;;;;;;;1.40;1.10;;;;;;;20.60;39.76;95935.50;20760482;28;20470;-75
2024/01/16 12:58:52;;;;;;;1.42;0.95;;;;;;;20.56;39.50;95954.31;20715136;28;20050;-76
2024/01/16 13:09:18;;;;;;;1.55;0.80;;;;;;;20.53;39.80;95960.47;20747417;28;20057;-75
2024/01/16 13:19:39;;;;;;;1.67;1.00;;;;;;;20.43;39.88;95956.34;20747034;28;20057;-75
2024/01/16 13:29:59;;;;;;;0.90;0.68;;;;;;;20.42;39.95;95957.47;20761067;28;20521;-75
2024/01/16 13:40:19;;;;;;;1.38;0.80;;;;;;;20.35;40.00;95958.09;20746120;28;20049;-75
2024/01/16 13:50:38;;;;;;;1.00;0.82;;;;;;;20.33;40.11;95944.16;20737768;28;20042;-75
2024/01/16 14:00:58;;;;;;;1.20;0.82;;;;;;;20.25;40.18;95941.63;20760298;28;20058;-76
2024/01/16 14:11:17;;;;;;;1.23;0.60;;;;;;;20.22;40.06;95942.31;20730664;28;20064;-75
2024/01/16 14:21:36;;;;;;;1.10;0.70;;;;;;;20.16;40.25;95955.31;20731316;28;20046;-75
2024/01/16 14:31:56;;;;;;;1.30;0.73;;;;;;;20.14;40.29;95969.16;20754369;28;20072;-75
2024/01/16 14:42:16;;;;;;;0.73;0.68;;;;;;;20.11;40.33;95964.47;20758057;28;20104;-75
2024/01/16 14:52:36;;;;;;;0.68;0.63;;;;;;;20.05;40.20;95949.66;20734524;28;20054;-75
2024/01/16 15:02:56;;;;;;;1.20;0.75;;;;;;;19.98;40.38;95964.91;20743234;28;20056;-75
2024/01/16 15:13:16;;;;;;;0.80;0.70;;;;;;;19.90;40.26;95959.28;20742366;28;20060;-75
2024/01/16 15:23:36;;;;;;;0.70;0.70;;;;;;;19.87;40.45;95965.38;20754778;28;20054;-75
2024/01/16 15:33:56;;;;;;;0.68;0.50;;;;;;;19.83;40.37;95964.50;20726490;28;20117;-75
2024/01/16 15:44:15;;;;;;;0.75;0.73;;;;;;;19.82;40.52;95957.53;20743169;28;20061;-75
2024/01/16 15:54:34;;;;;;;0.93;0.63;;;;;;;19.78;40.45;95956.66;20761780;28;20069;-76
2024/01/16 16:04:54;;;;;;;0.68;0.60;;;;;;;19.75;40.51;95960.81;20766654;28;20057;-75
2024/01/16 16:15:13;;;;;;;0.85;0.77;;;;;;;19.77;40.31;95982.09;20755477;28;20407;-76
2024/01/16 16:25:33;;;;;;;1.20;0.80;;;;;;;19.74;40.50;95980.88;20740732;28;20056;-75
2024/01/16 16:35:53;;;;;;;3.33;0.80;;;;;;;19.88;41.45;95994.00;20742368;28;20064;-75
2024/01/16 16:46:16;;;;;;;5.25;0.80;;;;;;;19.91;41.14;95998.69;20757337;28;20111;-75
2024/01/16 16:56:37;;;;;;;1.63;0.65;;;;;;;19.93;41.38;95996.47;20732593;28;20101;-75
2024/01/16 17:06:57;;;;;;;2.20;0.80;;;;;;;20.01;41.31;96002.81;20727470;28;20404;-75
2024/01/16 17:17:17;;;;;;;5.18;0.77;;;;;;;20.05;41.36;95997.50;20687627;28;20064;-76
2024/01/16 17:27:37;;;;;;;8.55;0.80;;;;;;;20.15;41.00;96003.22;20747630;28;20077;-77
2024/01/16 17:37:56;;;;;;;9.27;0.82;;;;;;;20.22;41.15;96004.53;20709719;28;20100;-76
2024/01/16 17:48:18;;;;;;;1.10;0.77;;;;;;;20.36;41.19;96021.09;20740660;28;20050;-78
2024/01/16 17:58:38;;;;;;;5.30;0.93;;;;;;;20.53;40.74;96033.50;20728456;28;20046;-81
2024/01/16 18:08:58;;;;;;;0.90;0.80;;;;;;;20.53;40.60;96038.94;20723622;28;20054;-80
2024/01/16 18:19:26;;;;;;;0.80;0.80;;;;;;;20.54;40.61;96035.88;20729685;28;20042;-83
2024/01/16 18:29:47;;;;;;;0.82;0.73;;;;;;;20.54;40.43;96041.28;20728306;28;20495;-80
2024/01/16 18:40:11;;;;;;;1.58;0.82;;;;;;;20.56;40.46;96040.91;20697347;28;20066;-78
2024/01/16 18:50:32;;;;;;;3.70;0.68;;;;;;;20.50;42.10;96045.00;20707502;28;20054;-78
2024/01/16 19:00:56;;;;;;;1.13;0.80;;;;;;;20.50;42.52;96039.59;20717168;28;20046;-80
2024/01/16 19:11:16;;;;;;;3.03;0.90;;;;;;;20.50;42.71;96028.78;20707916;28;20053;-81
2024/01/16 19:21:37;;;;;;;1.38;0.82;;;;;;;20.49;42.39;96021.81;20666897;28;20055;-84
2024/01/16 19:31:57;;;;;;;3.05;0.70;;;;;;;20.51;42.43;96014.91;20719032;28;20054;-84
2024/01/16 19:42:17;;;;;;;1.00;0.70;;;;;;;20.53;42.13;95996.41;20771045;28;20046;-82
2024/01/16 19:52:36;;;;;;;1.58;0.75;;;;;;;20.56;42.11;95989.50;20764700;28;20343;-74
2024/01/16 20:02:56;;;;;;;1.90;0.93;;;;;;;20.61;41.81;95986.56;20737239;28;20045;-74
2024/01/16 20:13:16;;;;;;;2.50;0.80;;;;;;;20.60;41.91;95974.19;20725716;28;20113;-74
2024/01/16 20:23:36;;;;;;;2.03;0.95;;;;;;;20.65;41.58;95971.19;20741956;28;20060;-74
2024/01/16 20:33:55;;;;;;;3.22;0.90;;;;;;;20.68;41.51;95964.28;20755482;28;20058;-74
2024/01/16 20:44:20;;;;;;;1.08;0.90;;;;;;;20.63;41.38;95972.69;20739410;28;20855;-74
2024/01/16 20:54:39;;;;;;;1.45;0.90;;;;;;;20.62;41.13;95955.69;20731501;28;20123;-76
2024/01/16 21:04:59;;;;;;;1.52;1.00;;;;;;;20.59;41.07;95950.97;20743575;28;20396;-76
2024/01/16 21:15:19;;;;;;;2.28;0.93;;;;;;;20.50;41.61;95955.72;20766047;28;20050;-76
2024/01/16 21:25:38;;;;;;;1.17;1.00;;;;;;;20.44;42.13;95949.03;20761490;28;20046;-76
2024/01/16 21:35:58;;;;;;;1.77;1.05;;;;;;;20.39;41.97;95957.41;20761471;28;20057;-76
2024/01/16 21:46:17;;;;;;;3.17;1.20;;;;;;;20.33;42.33;95959.59;20766001;28;20054;-76
2024/01/16 21:56:37;;;;;;;1.80;1.08;;;;;;;20.27;42.19;95956.38;20752665;28;20073;-76
2024/01/16 22:06:57;;;;;;;1.92;1.23;;;;;;;20.26;42.27;95943.19;20785478;28;20058;-74
2024/01/16 22:17:17;;;;;;;2.25;1.20;;;;;;;20.24;42.19;95930.00;20778769;28;20572;-74
2024/01/16 22:27:36;;;;;;;2.08;1.30;;;;;;;20.17;42.06;95921.75;20795495;28;21490;-74
2024/01/16 22:37:57;;;;;;;3.22;1.30;;;;;;;20.08;42.13;95910.31;20793441;28;20057;-75
2024/01/16 22:48:16;;;;;;;4.35;1.40;;;;;;;20.03;42.11;95878.09;20781323;28;20060;-72
2024/01/16 22:58:36;;;;;;;1.50;0.98;;;;;;;19.98;41.92;95851.34;20754643;28;20072;-72
2024/01/16 23:08:56;;;;;;;2.47;1.15;;;;;;;19.94;41.96;95845.84;20821483;28;20053;-72
2024/01/16 23:19:15;;;;;;;1.85;1.23;;;;;;;19.85;42.02;95840.63;20756425;28;20048;-72
2024/01/16 23:29:35;;;;;;;1.90;1.25;;;;;;;19.82;42.12;95810.81;20786757;28;20057;-72
2024/01/16 23:39:55;;;;;;;1.83;1.23;;;;;;;19.77;41.95;95797.56;20794553;28;20057;-72
2024/01/16 23:50:16;;;;;;;2.40;1.60;;;;;;;19.70;41.89;95787.34;20782666;28;20056;-72
